Time;durP1;ratioP1;P1;durP2;ratioP2;P2;SDS_P1;SDS_P2;PMS_P1;PMS_P2;Temp;Humidity;BMP_temperature;BMP_pressure;BME280_temperature;BME280_humidity;BME280_pressure;Samples;Min_cycle;Max_cycle;Signal;HPM_P1;HPM_P2
2022/05/14 00:01:13;;;;;;;;;;;;;;;;;;5075598;28;19995;-43
2022/05/14 00:03:39;;;;;;;;;;;;;;;;;;5074444;28;19960;-43
2022/05/14 00:06:05;;;;;;;;;;;;;;;;;;5075475;28;19912;-43
2022/05/14 00:08:30;;;;;;;;;;;;;;;;;;5075444;28;20339;-44
2022/05/14 00:13:39;;;;;;;;;;;;;;;;;;5075398;28;19962;-43
2022/05/14 00:16:04;;;;;;;;;;;;;;;;;;5075190;28;20305;-42
2022/05/14 00:18:29;;;;;;;;;;;;;;;;;;5075130;28;20287;-43
2022/05/14 00:20:54;;;;;;;;;;;;;;;;;;5074811;28;20342;-43
2022/05/14 00:23:19;;;;;;;;;;;;;;;;;;5075229;28;20383;-44
2022/05/14 00:25:44;;;;;;;;;;;;;;;;;;5074782;28;19920;-42
2022/05/14 00:28:10;;;;;;;;;;;;;;;;;;5074776;28;19923;-42
2022/05/14 00:30:36;;;;;;;;;;;;;;;;;;5075156;28;20374;-43
2022/05/14 00:33:01;;;;;;;;;;;;;;;;;;5075124;28;19915;-43
2022/05/14 00:35:26;;;;;;;;;;;;;;;;;;5074704;28;19913;-43
2022/05/14 00:37:51;;;;;;;;;;;;;;;;;;5074826;28;19909;-43
2022/05/14 00:40:17;;;;;;;;;;;;;;;;;;5075110;28;19908;-44
2022/05/14 00:42:42;;;;;;;;;;;;;;;;;;5075188;28;19960;-42
2022/05/14 00:45:07;;;;;;;;;;;;;;;;;;5075123;28;20259;-42
2022/05/14 00:47:33;;;;;;;;;;;;;;;;;;5075048;28;20366;-43
2022/05/14 00:49:58;;;;;;;;;;;;;;;;;;5074831;28;20395;-44
2022/05/14 00:52:23;;;;;;;;;;;;;;;;;;5075046;28;19971;-42
2022/05/14 00:54:48;;;;;;;;;;;;;;;;;;5075272;28;20438;-43
2022/05/14 00:57:13;;;;;;;;;;;;;;;;;;5075213;28;19910;-42
2022/05/14 00:59:38;;;;;;;;;;;;;;;;;;5075055;28;20377;-42
2022/05/14 01:02:06;;;;;;;;;;;;;;;;;;5075055;28;19912;-42
2022/05/14 01:04:31;;;;;;;;;;;;;;;;;;5075060;28;19917;-43
2022/05/14 01:06:56;;;;;;;;;;;;;;;;;;5074911;28;19999;-42
2022/05/14 01:09:21;;;;;;;;;;;;;;;;;;5075038;28;20000;-43
2022/05/14 01:11:47;;;;;;;;;;;;;;;;;;5074708;28;19908;-43
2022/05/14 01:14:12;;;;;;;;;;;;;;;;;;5075418;28;19931;-43
2022/05/14 01:16:37;;;;;;;;;;;;;;;;;;5078523;28;20340;-43
2022/05/14 01:19:02;;;;;;;;;;;;;;;;;;5078305;28;19955;-43
2022/05/14 01:21:27;;;;;;;;;;;;;;;;;;5078362;28;19919;-42
2022/05/14 01:26:36;;;;;;;;;;;;;;;;;;5078396;28;20406;-43
2022/05/14 01:29:01;;;;;;;;;;;;;;;;;;5078365;28;19908;-43
2022/05/14 01:31:27;;;;;;;;;;;;;;;;;;5078557;28;19932;-42
2022/05/14 01:33:52;;;;;;;;;;;;;;;;;;5078800;28;20370;-43
2022/05/14 01:36:17;;;;;;;;;;;;;;;;;;5078477;28;19995;-42
2022/05/14 01:38:42;;;;;;;;;;;;;;;;;;5078388;28;19908;-42
2022/05/14 01:41:09;;;;;;;;;;;;;;;;;;5078063;28;20007;-42
2022/05/14 01:43:34;;;;;;;;;;;;;;;;;;5077998;28;19912;-42
2022/05/14 01:45:59;;;;;;;;;;;;;;;;;;5078192;28;20370;-43
2022/05/14 01:48:24;;;;;;;;;;;;;;;;;;5078026;28;20317;-43
2022/05/14 01:50:50;;;;;;;;;;;;;;;;;;5077535;28;19999;-43
2022/05/14 01:53:15;;;;;;;;;;;;;;;;;;5077867;28;19966;-42
2022/05/14 01:55:40;;;;;;;;;;;;;;;;;;5077895;28;20012;-43
2022/05/14 01:58:36;;;;;;;;;;;;;;;;;;5077709;28;20247;-44
2022/05/14 02:00:50;;;;;;;;;;;;;;;;;;5077844;28;19909;-42
2022/05/14 02:03:15;;;;;;;;;;;;;;;;;;5077505;28;20346;-42
2022/05/14 02:05:40;;;;;;;;;;;;;;;;;;5077664;28;20271;-42
2022/05/14 02:08:06;;;;;;;;;;;;;;;;;;5077736;28;19908;-42
2022/05/14 02:10:31;;;;;;;;;;;;;;;;;;5077535;28;19912;-43
2022/05/14 02:12:57;;;;;;;;;;;;;;;;;;5077421;28;19909;-42
2022/05/14 02:15:22;;;;;;;;;;;;;;;;;;5077483;28;20278;-42
2022/05/14 02:17:47;;;;;;;;;;;;;;;;;;5077381;28;19927;-42
2022/05/14 02:20:13;;;;;;;;;;;;;;;;;;5077279;28;19916;-42
2022/05/14 02:22:38;;;;;;;;;;;;;;;;;;5077194;28;20384;-42
2022/05/14 02:25:03;;;;;;;;;;;;;;;;;;5076973;28;19917;-42
2022/05/14 02:27:28;;;;;;;;;;;;;;;;;;5076648;28;20367;-42
2022/05/14 02:29:54;;;;;;;;;;;;;;;;;;5077506;28;19915;-42
2022/05/14 02:32:19;;;;;;;;;;;;;;;;;;5077269;28;20287;-43
2022/05/14 02:34:45;;;;;;;;;;;;;;;;;;5077399;28;19915;-42
2022/05/14 02:37:10;;;;;;;;;;;;;;;;;;5077114;28;20359;-42
2022/05/14 02:39:35;;;;;;;;;;;;;;;;;;5077701;28;19912;-43
2022/05/14 02:42:00;;;;;;;;;;;;;;;;;;5078351;28;20342;-43
2022/05/14 02:44:25;;;;;;;;;;;;;;;;;;5076880;28;19948;-43
2022/05/14 02:46:50;;;;;;;;;;;;;;;;;;5076951;28;20363;-42
2022/05/14 02:49:15;;;;;;;;;;;;;;;;;;5076858;28;19909;-43
2022/05/14 02:51:40;;;;;;;;;;;;;;;;;;5076385;28;20028;-43
2022/05/14 02:54:05;;;;;;;;;;;;;;;;;;5071278;28;20367;-43
2022/05/14 02:56:31;;;;;;;;;;;;;;;;;;5075809;28;19917;-43
2022/05/14 02:59:08;;;;;;;;;;;;;;;;;;5076678;28;20003;-43
2022/05/14 03:01:33;;;;;;;;;;;;;;;;;;5076745;28;19908;-43
2022/05/14 03:03:59;;;;;;;;;;;;;;;;;;5076580;28;19920;-43
2022/05/14 03:06:24;;;;;;;;;;;;;;;;;;5076809;28;19970;-44
2022/05/14 03:08:50;;;;;;;;;;;;;;;;;;5076528;28;19913;-43
2022/05/14 03:11:15;;;;;;;;;;;;;;;;;;5075049;28;19932;-44
2022/05/14 03:13:40;;;;;;;;;;;;;;;;;;5076434;28;19904;-43
2022/05/14 03:16:05;;;;;;;;;;;;;;;;;;5074826;28;19913;-43
2022/05/14 03:18:31;;;;;;;;;;;;;;;;;;5076248;28;19920;-43
2022/05/14 03:20:56;;;;;;;;;;;;;;;;;;5075947;28;19935;-43
2022/05/14 03:23:21;;;;;;;;;;;;;;;;;;5076069;28;20463;-43
2022/05/14 03:25:46;;;;;;;;;;;;;;;;;;5076209;28;19970;-43
2022/05/14 03:28:11;;;;;;;;;;;;;;;;;;5076015;28;19916;-42
2022/05/14 03:30:37;;;;;;;;;;;;;;;;;;5076009;28;19905;-44
2022/05/14 03:33:02;;;;;;;;;;;;;;;;;;5076137;28;19909;-43
2022/05/14 03:35:27;;;;;;;;;;;;;;;;;;5076074;28;19951;-42
2022/05/14 03:37:52;;;;;;;;;;;;;;;;;;5075992;28;19909;-43
2022/05/14 03:40:17;;;;;;;;;;;;;;;;;;5076208;28;20347;-42
2022/05/14 03:42:42;;;;;;;;;;;;;;;;;;5076031;28;20287;-42
2022/05/14 03:45:07;;;;;;;;;;;;;;;;;;5075761;28;20438;-43
2022/05/14 03:47:32;;;;;;;;;;;;;;;;;;5075770;28;19916;-43
2022/05/14 03:49:58;;;;;;;;;;;;;;;;;;5075356;28;19920;-44
2022/05/14 03:52:23;;;;;;;;;;;;;;;;;;5075579;28;19920;-43
2022/05/14 03:54:48;;;;;;;;;;;;;;;;;;5075724;28;19915;-43
2022/05/14 03:57:14;;;;;;;;;;;;;;;;;;5075667;28;19912;-43
2022/05/14 03:59:39;;;;;;;;;;;;;;;;;;5075570;28;19915;-42
2022/05/14 04:02:04;;;;;;;;;;;;;;;;;;5075366;28;19908;-43
2022/05/14 04:04:30;;;;;;;;;;;;;;;;;;5075333;28;19956;-42
2022/05/14 04:06:55;;;;;;;;;;;;;;;;;;5075479;28;20389;-42
2022/05/14 04:09:21;;;;;;;;;;;;;;;;;;5075280;28;19912;-43
2022/05/14 04:11:46;;;;;;;;;;;;;;;;;;5075388;28;19908;-43
2022/05/14 04:14:11;;;;;;;;;;;;;;;;;;5075301;28;19915;-43
2022/05/14 04:16:36;;;;;;;;;;;;;;;;;;5075078;28;19908;-42
2022/05/14 04:19:01;;;;;;;;;;;;;;;;;;5073847;28;19920;-42
2022/05/14 04:21:26;;;;;;;;;;;;;;;;;;5075163;28;19912;-42
2022/05/14 04:23:52;;;;;;;;;;;;;;;;;;5075064;28;20408;-43
2022/05/14 04:26:22;;;;;;;;;;;;;;;;;;5074389;28;19912;-43
2022/05/14 04:28:47;;;;;;;;;;;;;;;;;;5075664;28;19915;-44
2022/05/14 04:31:12;;;;;;;;;;;;;;;;;;5075238;28;19909;-42
2022/05/14 04:33:37;;;;;;;;;;;;;;;;;;5075237;28;20277;-42
2022/05/14 04:36:02;;;;;;;;;;;;;;;;;;5075206;28;19998;-43
2022/05/14 04:38:27;;;;;;;;;;;;;;;;;;5074908;28;19970;-43
2022/05/14 04:40:53;;;;;;;;;;;;;;;;;;5074888;28;20416;-43
2022/05/14 04:43:18;;;;;;;;;;;;;;;;;;5075184;28;19928;-43
2022/05/14 04:45:43;;;;;;;;;;;;;;;;;;5074943;28;20422;-42
2022/05/14 04:48:08;;;;;;;;;;;;;;;;;;5075069;28;20351;-43
2022/05/14 04:50:33;;;;;;;;;;;;;;;;;;5080560;28;20061;-42
2022/05/14 04:52:59;;;;;;;;;;;;;;;;;;5081742;28;19975;-43
2022/05/14 04:55:24;;;;;;;;;;;;;;;;;;5081614;28;19908;-42
2022/05/14 04:57:49;;;;;;;;;;;;;;;;;;5081508;28;20394;-43
2022/05/14 05:00:14;;;;;;;;;;;;;;;;;;5081583;28;20279;-43
2022/05/14 05:05:23;;;;;;;;;;;;;;;;;;5081332;28;19923;-42
2022/05/14 05:07:48;;;;;;;;;;;;;;;;;;5081120;28;19916;-43
2022/05/14 05:10:14;;;;;;;;;;;;;;;;;;5081461;28;19908;-43
2022/05/14 05:12:39;;;;;;;;;;;;;;;;;;5081272;28;19908;-43
2022/05/14 05:15:04;;;;;;;;;;;;;;;;;;5081485;28;19908;-42
2022/05/14 05:17:29;;;;;;;;;;;;;;;;;;5081090;28;19921;-43
2022/05/14 05:19:54;;;;;;;;;;;;;;;;;;5081057;28;19948;-43
2022/05/14 05:22:19;;;;;;;;;;;;;;;;;;5080644;28;19912;-43
2022/05/14 05:24:46;;;;;;;;;;;;;;;;;;5081483;28;19931;-42
2022/05/14 05:27:11;;;;;;;;;;;;;;;;;;5081154;28;19950;-43
2022/05/14 05:29:36;;;;;;;;;;;;;;;;;;5081331;28;19908;-43
2022/05/14 05:32:01;;;;;;;;;;;;;;;;;;5081403;28;19908;-43
2022/05/14 05:34:27;;;;;;;;;;;;;;;;;;5081235;28;19909;-42
2022/05/14 05:36:52;;;;;;;;;;;;;;;;;;5081178;28;20392;-43
2022/05/14 05:39:17;;;;;;;;;;;;;;;;;;5081238;28;20407;-43
2022/05/14 05:41:42;;;;;;;;;;;;;;;;;;5081188;28;19912;-43
2022/05/14 05:44:08;;;;;;;;;;;;;;;;;;5080914;28;19916;-43
2022/05/14 05:46:33;;;;;;;;;;;;;;;;;;5080847;28;19909;-42
2022/05/14 05:48:58;;;;;;;;;;;;;;;;;;5081115;28;19915;-42
2022/05/14 05:51:23;;;;;;;;;;;;;;;;;;5080810;28;19919;-43
2022/05/14 05:56:51;;;;;;;;;;;;;;;;;;5080975;28;20283;-43
2022/05/14 05:59:16;;;;;;;;;;;;;;;;;;5080873;28;19979;-42
2022/05/14 06:01:41;;;;;;;;;;;;;;;;;;5077276;28;19947;-42
2022/05/14 06:04:07;;;;;;;;;;;;;;;;;;5077747;28;19965;-42
2022/05/14 06:06:32;;;;;;;;;;;;;;;;;;5077769;28;19928;-43
2022/05/14 06:08:57;;;;;;;;;;;;;;;;;;5077672;28;20003;-43
2022/05/14 06:11:22;;;;;;;;;;;;;;;;;;5077905;28;20003;-43
2022/05/14 06:13:47;;;;;;;;;;;;;;;;;;5078451;28;20011;-42
2022/05/14 06:16:12;;;;;;;;;;;;;;;;;;5077700;28;20054;-42
2022/05/14 06:18:42;;;;;;;;;;;;;;;;;;5071279;22;20347;-45
2022/05/14 06:21:07;;;;;;;;;;;;;;;;;;5057032;28;19972;-44
2022/05/14 06:23:32;;;;;;;;;;;;;;;;;;5057443;28;20070;-44
2022/05/14 06:25:57;;;;;;;;;;;;;;;;;;5057329;28;19957;-43
2022/05/14 06:28:22;;;;;;;;;;;;;;;;;;5057604;28;19908;-42
2022/05/14 06:30:47;;;;;;;;;;;;;;;;;;5057672;28;19974;-44
2022/05/14 06:33:13;;;;;;;;;;;;;;;;;;5072920;28;19908;-44
2022/05/14 06:35:38;;;;;;;;;;;;;;;;;;5057543;28;20252;-44
2022/05/14 06:38:03;;;;;;;;;;;;;;;;;;5057267;28;20302;-42
2022/05/14 06:40:28;;;;;;;;;;;;;;;;;;5057299;28;19955;-42
2022/05/14 06:42:53;;;;;;;;;;;;;;;;;;5057246;28;19935;-42
2022/05/14 06:45:18;;;;;;;;;;;;;;;;;;5056922;28;19965;-42
2022/05/14 06:47:44;;;;;;;;;;;;;;;;;;5055631;28;20355;-43
2022/05/14 06:50:09;;;;;;;;;;;;;;;;;;5056797;28;19909;-43
2022/05/14 06:52:34;;;;;;;;;;;;;;;;;;5057019;28;19913;-44
2022/05/14 06:54:59;;;;;;;;;;;;;;;;;;5056494;28;19921;-43
2022/05/14 06:57:24;;;;;;;;;;;;;;;;;;5056631;28;19963;-44
2022/05/14 06:59:49;;;;;;;;;;;;;;;;;;5055185;28;19966;-42
2022/05/14 07:02:14;;;;;;;;;;;;;;;;;;5056484;28;19951;-43
2022/05/14 07:07:23;;;;;;;;;;;;;;;;;;5056373;28;19970;-43
2022/05/14 07:09:49;;;;;;;;;;;;;;;;;;5056188;28;19916;-42
2022/05/14 07:12:15;;;;;;;;;;;;;;;;;;5055620;28;19913;-43
2022/05/14 07:14:40;;;;;;;;;;;;;;;;;;5041919;28;19920;-42
2022/05/14 07:17:05;;;;;;;;;;;;;;;;;;5035883;28;19909;-42
2022/05/14 07:19:30;;;;;;;;;;;;;;;;;;5038547;28;20057;-43
2022/05/14 07:21:55;;;;;;;;;;;;;;;;;;5056133;28;20368;-43
2022/05/14 07:24:21;;;;;;;;;;;;;;;;;;5056505;28;20003;-43
2022/05/14 07:26:46;;;;;;;;;;;;;;;;;;5056224;28;20042;-43
2022/05/14 07:29:12;;;;;;;;;;;;;;;;;;5071284;28;19931;-42
2022/05/14 07:31:37;;;;;;;;;;;;;;;;;;5056102;28;19908;-43
2022/05/14 07:34:02;;;;;;;;;;;;;;;;;;5055671;28;19908;-42
2022/05/14 07:36:27;;;;;;;;;;;;;;;;;;5055685;28;20038;-42
2022/05/14 07:38:52;;;;;;;;;;;;;;;;;;5055448;28;20354;-42
2022/05/14 07:41:17;;;;;;;;;;;;;;;;;;5055639;28;19916;-42
2022/05/14 07:43:43;;;;;;;;;;;;;;;;;;5055435;28;19913;-43
2022/05/14 07:46:08;;;;;;;;;;;;;;;;;;5055573;28;19920;-43
2022/05/14 07:48:33;;;;;;;;;;;;;;;;;;5070691;28;20343;-43
2022/05/14 07:50:59;;;;;;;;;;;;;;;;;;5054298;28;19920;-42
2022/05/14 07:53:30;;;;;;;;;;;;;;;;;;5070484;28;19913;-43
2022/05/14 07:55:55;;;;;;;;;;;;;;;;;;5055260;28;19909;-45
2022/05/14 07:58:20;;;;;;;;;;;;;;;;;;5070580;28;19908;-43
2022/05/14 08:00:45;;;;;;;;;;;;;;;;;;5055117;28;19908;-43
2022/05/14 08:03:10;;;;;;;;;;;;;;;;;;5055023;28;19913;-42
2022/05/14 08:05:35;;;;;;;;;;;;;;;;;;5054991;28;19909;-44
2022/05/14 08:08:00;;;;;;;;;;;;;;;;;;5055007;28;19919;-43
2022/05/14 08:10:25;;;;;;;;;;;;;;;;;;5054756;28;20040;-43
2022/05/14 08:12:53;;;;;;;;;;;;;;;;;;5054614;28;19912;-43
2022/05/14 08:15:18;;;;;;;;;;;;;;;;;;5054877;28;20356;-43
2022/05/14 08:17:43;;;;;;;;;;;;;;;;;;5054722;28;20008;-43
2022/05/14 08:20:09;;;;;;;;;;;;;;;;;;5069933;28;19916;-43
2022/05/14 08:25:25;;;;;;;;;;;;;;;;;;5037580;28;19916;-43
2022/05/14 08:27:50;;;;;;;;;;;;;;;;;;5054238;28;20401;-43
2022/05/14 08:30:15;;;;;;;;;;;;;;;;;;5054679;28;20329;-44
2022/05/14 08:32:41;;;;;;;;;;;;;;;;;;5054514;28;19978;-44
2022/05/14 08:35:06;;;;;;;;;;;;;;;;;;5054630;28;19916;-44
2022/05/14 08:37:31;;;;;;;;;;;;;;;;;;5054411;28;19913;-43
2022/05/14 08:39:56;;;;;;;;;;;;;;;;;;5054508;28;19909;-44
2022/05/14 08:42:21;;;;;;;;;;;;;;;;;;5054395;28;19960;-44
2022/05/14 08:44:46;;;;;;;;;;;;;;;;;;5054350;28;19920;-44
2022/05/14 08:47:11;;;;;;;;;;;;;;;;;;5054300;28;19913;-44
2022/05/14 08:49:36;;;;;;;;;;;;;;;;;;5054370;28;20371;-44
2022/05/14 08:52:01;;;;;;;;;;;;;;;;;;5054301;28;20244;-44
2022/05/14 08:54:26;;;;;;;;;;;;;;;;;;5054444;28;19991;-45
2022/05/14 08:56:52;;;;;;;;;;;;;;;;;;5053980;28;20314;-46
2022/05/14 08:59:17;;;;;;;;;;;;;;;;;;5054168;28;19934;-44
2022/05/14 09:01:42;;;;;;;;;;;;;;;;;;5054302;28;19908;-45
2022/05/14 09:04:08;;;;;;;;;;;;;;;;;;5054280;28;20280;-44
2022/05/14 09:06:34;;;;;;;;;;;;;;;;;;5054332;28;20341;-44
2022/05/14 09:08:59;;;;;;;;;;;;;;;;;;5054307;28;19940;-44
2022/05/14 09:11:24;;;;;;;;;;;;;;;;;;5054209;28;19909;-44
2022/05/14 09:13:49;;;;;;;;;;;;;;;;;;5054116;28;19985;-44
2022/05/14 09:16:14;;;;;;;;;;;;;;;;;;5053862;28;19915;-44
2022/05/14 09:18:39;;;;;;;;;;;;;;;;;;5053867;28;19928;-45
2022/05/14 09:21:04;;;;;;;;;;;;;;;;;;5054094;28;19995;-45
2022/05/14 09:23:29;;;;;;;;;;;;;;;;;;5054091;28;20022;-45
2022/05/14 09:25:55;;;;;;;;;;;;;;;;;;5053907;28;19995;-45
2022/05/14 09:28:20;;;;;;;;;;;;;;;;;;5053892;28;20011;-45
2022/05/14 09:30:46;;;;;;;;;;;;;;;;;;5054008;28;20363;-44
2022/05/14 09:33:11;;;;;;;;;;;;;;;;;;5053924;28;20005;-45
2022/05/14 09:35:37;;;;;;;;;;;;;;;;;;5055452;28;19928;-44
2022/05/14 09:38:02;;;;;;;;;;;;;;;;;;5057726;28;19955;-44
2022/05/14 09:40:27;;;;;;;;;;;;;;;;;;5057700;28;19952;-44
2022/05/14 09:42:52;;;;;;;;;;;;;;;;;;5057623;28;19944;-44
2022/05/14 09:45:17;;;;;;;;;;;;;;;;;;5057540;28;19913;-45
2022/05/14 09:47:43;;;;;;;;;;;;;;;;;;5057619;28;19909;-45
2022/05/14 09:50:09;;;;;;;;;;;;;;;;;;5057469;28;19919;-44
2022/05/14 09:52:34;;;;;;;;;;;;;;;;;;5057442;28;19908;-45
2022/05/14 09:55:01;;;;;;;;;;;;;;;;;;5057638;28;20314;-46
2022/05/14 09:57:26;;;;;;;;;;;;;;;;;;5057086;28;19913;-46
2022/05/14 09:59:51;;;;;;;;;;;;;;;;;;5056144;28;20279;-44
2022/05/14 10:02:16;;;;;;;;;;;;;;;;;;5057301;28;19909;-44
2022/05/14 10:04:41;;;;;;;;;;;;;;;;;;5057316;28;19912;-45
2022/05/14 10:07:07;;;;;;;;;;;;;;;;;;5057209;28;20371;-45
2022/05/14 10:09:32;;;;;;;;;;;;;;;;;;5057044;28;20271;-44
2022/05/14 10:11:57;;;;;;;;;;;;;;;;;;5057209;28;20241;-45
2022/05/14 10:14:22;;;;;;;;;;;;;;;;;;5057077;28;19920;-45
2022/05/14 10:16:47;;;;;;;;;;;;;;;;;;5057163;28;20003;-44
2022/05/14 10:19:12;;;;;;;;;;;;;;;;;;5056463;28;20453;-44
2022/05/14 10:21:37;;;;;;;;;;;;;;;;;;5056823;28;19987;-46
2022/05/14 10:26:46;;;;;;;;;;;;;;;;;;5036988;28;20009;-44
2022/05/14 10:29:11;;;;;;;;;;;;;;;;;;5036813;28;19949;-44
2022/05/14 10:31:37;;;;;;;;;;;;;;;;;;5036768;28;20263;-44
2022/05/14 10:34:02;;;;;;;;;;;;;;;;;;5036857;28;19936;-44
2022/05/14 10:36:27;;;;;;;;;;;;;;;;;;5052406;28;19917;-44
2022/05/14 10:38:53;;;;;;;;;;;;;;;;;;5056616;28;19917;-44
2022/05/14 10:41:18;;;;;;;;;;;;;;;;;;5055396;28;20275;-44
2022/05/14 10:43:43;;;;;;;;;;;;;;;;;;5056454;28;19966;-44
2022/05/14 10:46:08;;;;;;;;;;;;;;;;;;5056521;28;19913;-45
2022/05/14 10:48:37;;;;;;;;;;;;;;;;;;5055689;28;19931;-44
2022/05/14 10:51:02;;;;;;;;;;;;;;;;;;5056374;28;19913;-44
2022/05/14 10:53:27;;;;;;;;;;;;;;;;;;5056088;28;19921;-44
2022/05/14 10:55:53;;;;;;;;;;;;;;;;;;5055927;28;19982;-45
2022/05/14 10:58:19;;;;;;;;;;;;;;;;;;5056181;28;19908;-44
2022/05/14 11:00:46;;;;;;;;;;;;;;;;;;5056138;28;20334;-45
2022/05/14 11:03:11;;;;;;;;;;;;;;;;;;5055577;28;20414;-45
2022/05/14 11:05:36;;;;;;;;;;;;;;;;;;5052199;28;19916;-45
2022/05/14 11:08:01;;;;;;;;;;;;;;;;;;5055819;28;19917;-44
2022/05/14 11:10:27;;;;;;;;;;;;;;;;;;5055984;28;19915;-46
2022/05/14 11:12:52;;;;;;;;;;;;;;;;;;5056108;28;19909;-44
2022/05/14 11:15:17;;;;;;;;;;;;;;;;;;5056170;28;19980;-45
2022/05/14 11:17:42;;;;;;;;;;;;;;;;;;5055706;28;19960;-44
2022/05/14 11:20:07;;;;;;;;;;;;;;;;;;5055860;28;19915;-44
2022/05/14 11:22:33;;;;;;;;;;;;;;;;;;5055810;28;19920;-44
2022/05/14 11:24:58;;;;;;;;;;;;;;;;;;5054112;28;19924;-44
2022/05/14 11:27:23;;;;;;;;;;;;;;;;;;5055640;28;19963;-45
2022/05/14 11:29:48;;;;;;;;;;;;;;;;;;5055628;28;19909;-44
2022/05/14 11:32:13;;;;;;;;;;;;;;;;;;5055591;28;19913;-45
2022/05/14 11:34:38;;;;;;;;;;;;;;;;;;5055565;28;19909;-45
2022/05/14 11:37:04;;;;;;;;;;;;;;;;;;5055533;28;19909;-44
2022/05/14 11:39:29;;;;;;;;;;;;;;;;;;5055309;28;20245;-45
2022/05/14 11:41:54;;;;;;;;;;;;;;;;;;5055459;28;19913;-44
2022/05/14 11:44:19;;;;;;;;;;;;;;;;;;5055303;28;19917;-44
2022/05/14 11:46:44;;;;;;;;;;;;;;;;;;5055485;28;19909;-44
2022/05/14 11:49:09;;;;;;;;;;;;;;;;;;5055285;28;20378;-45
2022/05/14 11:51:35;;;;;;;;;;;;;;;;;;5055150;28;19908;-46
2022/05/14 11:54:00;;;;;;;;;;;;;;;;;;5054947;28;19916;-45
2022/05/14 11:56:25;;;;;;;;;;;;;;;;;;5054877;28;19912;-45
2022/05/14 11:58:50;;;;;;;;;;;;;;;;;;5054055;28;20386;-44
2022/05/14 12:01:15;;;;;;;;;;;;;;;;;;5055080;28;19909;-45
2022/05/14 12:03:40;;;;;;;;;;;;;;;;;;5054935;28;19912;-45
2022/05/14 12:06:05;;;;;;;;;;;;;;;;;;5055023;28;20437;-45
2022/05/14 12:08:31;;;;;;;;;;;;;;;;;;5053665;28;20295;-46
2022/05/14 12:10:56;;;;;;;;;;;;;;;;;;5054852;28;19912;-45
2022/05/14 12:13:21;;;;;;;;;;;;;;;;;;5055023;28;19966;-45
2022/05/14 12:15:47;;;;;;;;;;;;;;;;;;5054779;28;19909;-44
2022/05/14 12:18:12;;;;;;;;;;;;;;;;;;5054715;28;19920;-46
2022/05/14 12:20:37;;;;;;;;;;;;;;;;;;5054613;28;19908;-45
2022/05/14 12:23:02;;;;;;;;;;;;;;;;;;5054664;28;19917;-44
2022/05/14 12:25:27;;;;;;;;;;;;;;;;;;5053973;28;19920;-44
2022/05/14 12:27:52;;;;;;;;;;;;;;;;;;5054641;28;19909;-45
2022/05/14 12:33:14;;;;;;;;;;;;;;;;;;5054526;28;20436;-44
2022/05/14 12:35:39;;;;;;;;;;;;;;;;;;5054475;28;19981;-45
2022/05/14 12:38:05;;;;;;;;;;;;;;;;;;5054642;28;19951;-44
2022/05/14 12:40:30;;;;;;;;;;;;;;;;;;5054427;28;19955;-44
2022/05/14 12:42:56;;;;;;;;;;;;;;;;;;5054480;28;20378;-44
2022/05/14 12:45:22;;;;;;;;;;;;;;;;;;5054331;28;19913;-44
2022/05/14 12:47:47;;;;;;;;;;;;;;;;;;5069930;28;19963;-44
2022/05/14 12:50:12;;;;;;;;;;;;;;;;;;5069962;28;19909;-44
2022/05/14 12:52:37;;;;;;;;;;;;;;;;;;5054461;28;19908;-45
2022/05/14 12:55:02;;;;;;;;;;;;;;;;;;5054103;28;19913;-45
2022/05/14 12:57:27;;;;;;;;;;;;;;;;;;5054359;28;19913;-47
2022/05/14 12:59:52;;;;;;;;;;;;;;;;;;5054345;28;19909;-46
2022/05/14 13:02:18;;;;;;;;;;;;;;;;;;5054236;28;19915;-44
2022/05/14 13:04:43;;;;;;;;;;;;;;;;;;5054265;28;19912;-44
2022/05/14 13:07:08;;;;;;;;;;;;;;;;;;5054234;28;19908;-45
2022/05/14 13:09:33;;;;;;;;;;;;;;;;;;5054251;28;19990;-45
2022/05/14 13:11:59;;;;;;;;;;;;;;;;;;5058009;28;19909;-45
2022/05/14 13:14:24;;;;;;;;;;;;;;;;;;5058130;28;19909;-44
2022/05/14 13:16:49;;;;;;;;;;;;;;;;;;5073539;28;19909;-45
2022/05/14 13:19:14;;;;;;;;;;;;;;;;;;5057595;28;19966;-45
2022/05/14 13:21:39;;;;;;;;;;;;;;;;;;5058115;28;19909;-46
2022/05/14 13:24:04;;;;;;;;;;;;;;;;;;5057940;28;19942;-45
2022/05/14 13:26:30;;;;;;;;;;;;;;;;;;5058008;28;19913;-44
2022/05/14 13:28:55;;;;;;;;;;;;;;;;;;5057858;28;19915;-45
2022/05/14 13:31:20;;;;;;;;;;;;;;;;;;5057850;28;19930;-45
2022/05/14 13:33:45;;;;;;;;;;;;;;;;;;5057905;28;19909;-45
2022/05/14 13:38:54;;;;;;;;;;;;;;;;;;5057785;28;20287;-45
2022/05/14 13:41:22;;;;;;;;;;;;;;;;;;5057671;28;19913;-44
2022/05/14 13:43:47;;;;;;;;;;;;;;;;;;5057602;28;20326;-44
2022/05/14 13:46:12;;;;;;;;;;;;;;;;;;5057560;28;19908;-45
2022/05/14 13:48:38;;;;;;;;;;;;;;;;;;5057216;28;20326;-44
2022/05/14 13:51:03;;;;;;;;;;;;;;;;;;5057596;28;19992;-44
2022/05/14 13:53:28;;;;;;;;;;;;;;;;;;5057437;28;19913;-45
2022/05/14 13:55:53;;;;;;;;;;;;;;;;;;5057411;28;19909;-44
2022/05/14 13:58:19;;;;;;;;;;;;;;;;;;5057389;28;20317;-48
2022/05/14 14:00:44;;;;;;;;;;;;;;;;;;5057366;28;20042;-44
2022/05/14 14:03:09;;;;;;;;;;;;;;;;;;5056061;28;19916;-45
2022/05/14 14:05:34;;;;;;;;;;;;;;;;;;5057207;28;19984;-45
2022/05/14 14:07:59;;;;;;;;;;;;;;;;;;5057097;28;20390;-44
2022/05/14 14:10:24;;;;;;;;;;;;;;;;;;5057189;28;19909;-42
2022/05/14 14:12:49;;;;;;;;;;;;;;;;;;5057188;28;19916;-45
2022/05/14 14:15:15;;;;;;;;;;;;;;;;;;5057137;28;19908;-44
2022/05/14 14:17:40;;;;;;;;;;;;;;;;;;5056595;28;19925;-45
2022/05/14 14:20:06;;;;;;;;;;;;;;;;;;5056923;28;20356;-44
2022/05/14 14:22:31;;;;;;;;;;;;;;;;;;5055781;28;20352;-45
2022/05/14 14:24:56;;;;;;;;;;;;;;;;;;5056427;28;19916;-47
2022/05/14 14:27:21;;;;;;;;;;;;;;;;;;5056991;28;19913;-45
2022/05/14 14:29:46;;;;;;;;;;;;;;;;;;5072231;28;20325;-45
2022/05/14 14:32:11;;;;;;;;;;;;;;;;;;5056895;28;19908;-45
2022/05/14 14:34:37;;;;;;;;;;;;;;;;;;5056728;28;19909;-44
2022/05/14 14:37:02;;;;;;;;;;;;;;;;;;5056689;28;20245;-46
2022/05/14 14:39:28;;;;;;;;;;;;;;;;;;5056621;28;19928;-44
2022/05/14 14:41:54;;;;;;;;;;;;;;;;;;5056534;28;20386;-45
2022/05/14 14:44:19;;;;;;;;;;;;;;;;;;5056461;28;19913;-44
2022/05/14 14:46:45;;;;;;;;;;;;;;;;;;5056548;28;19909;-45
2022/05/14 14:49:12;;;;;;;;;;;;;;;;;;5056160;28;20381;-44
2022/05/14 14:51:37;;;;;;;;;;;;;;;;;;5056380;28;19913;-45
2022/05/14 14:54:03;;;;;;;;;;;;;;;;;;5056417;28;19909;-46
2022/05/14 14:56:28;;;;;;;;;;;;;;;;;;5054844;28;20360;-45
2022/05/14 14:58:55;;;;;;;;;;;;;;;;;;5056316;28;19913;-46
2022/05/14 15:01:20;;;;;;;;;;;;;;;;;;5056219;28;19912;-45
2022/05/14 15:03:45;;;;;;;;;;;;;;;;;;5056078;28;19912;-46
2022/05/14 15:06:15;;;;;;;;;;;;;;;;;;5056062;28;19908;-45
2022/05/14 15:08:40;;;;;;;;;;;;;;;;;;5056050;28;19917;-45
2022/05/14 15:11:05;;;;;;;;;;;;;;;;;;5056044;28;20320;-45
2022/05/14 15:13:30;;;;;;;;;;;;;;;;;;5055780;28;20314;-45
2022/05/14 15:15:55;;;;;;;;;;;;;;;;;;5055303;28;19910;-44
2022/05/14 15:18:20;;;;;;;;;;;;;;;;;;5054891;28;19921;-45
2022/05/14 15:20:45;;;;;;;;;;;;;;;;;;5055282;28;20051;-44
2022/05/14 15:23:10;;;;;;;;;;;;;;;;;;5055548;28;20000;-46
2022/05/14 15:25:36;;;;;;;;;;;;;;;;;;5055675;28;19913;-45
2022/05/14 15:28:01;;;;;;;;;;;;;;;;;;5056052;28;19909;-45
2022/05/14 15:30:26;;;;;;;;;;;;;;;;;;5055756;28;19909;-45
2022/05/14 15:32:51;;;;;;;;;;;;;;;;;;5055393;28;19912;-45
2022/05/14 15:35:16;;;;;;;;;;;;;;;;;;5055540;28;19912;-45
2022/05/14 15:37:41;;;;;;;;;;;;;;;;;;5055538;28;19991;-45
2022/05/14 15:40:07;;;;;;;;;;;;;;;;;;5055565;28;19920;-47
2022/05/14 15:42:32;;;;;;;;;;;;;;;;;;5055351;28;19956;-45
2022/05/14 15:44:57;;;;;;;;;;;;;;;;;;5055253;28;20427;-45
2022/05/14 15:47:22;;;;;;;;;;;;;;;;;;5054984;28;20004;-45
2022/05/14 15:49:49;;;;;;;;;;;;;;;;;;5070497;28;19929;-45
2022/05/14 15:52:14;;;;;;;;;;;;;;;;;;5055315;28;19996;-45
2022/05/14 15:54:39;;;;;;;;;;;;;;;;;;5055136;28;19948;-45
2022/05/14 15:57:04;;;;;;;;;;;;;;;;;;5055128;28;19988;-45
2022/05/14 15:59:29;;;;;;;;;;;;;;;;;;5055001;28;19913;-45
2022/05/14 16:01:55;;;;;;;;;;;;;;;;;;5055010;28;19909;-44
2022/05/14 16:04:21;;;;;;;;;;;;;;;;;;5054893;28;19912;-44
2022/05/14 16:06:46;;;;;;;;;;;;;;;;;;5054962;28;20376;-45
2022/05/14 16:09:11;;;;;;;;;;;;;;;;;;5054929;28;19913;-44
2022/05/14 16:17:20;;;;;;;;;;;;;;;;;;5031787;28;19933;-44
2022/05/14 16:19:46;;;;;;;;;;;;;;;;;;5032373;28;19917;-45
2022/05/14 16:22:11;;;;;;;;;;;;;;;;;;5033135;28;20390;-45
2022/05/14 16:24:36;;;;;;;;;;;;;;;;;;5034765;28;19916;-45
2022/05/14 16:27:01;;;;;;;;;;;;;;;;;;5070581;28;20348;-46
2022/05/14 16:29:26;;;;;;;;;;;;;;;;;;5055121;28;19915;-45
2022/05/14 16:31:52;;;;;;;;;;;;;;;;;;5054921;28;19952;-45
2022/05/14 16:34:17;;;;;;;;;;;;;;;;;;5054475;28;19951;-45
2022/05/14 16:36:42;;;;;;;;;;;;;;;;;;5054923;28;19917;-45
2022/05/14 16:39:07;;;;;;;;;;;;;;;;;;5054909;28;19917;-45
2022/05/14 16:41:32;;;;;;;;;;;;;;;;;;5054614;28;19909;-45
2022/05/14 16:43:57;;;;;;;;;;;;;;;;;;5054251;28;19913;-45
2022/05/14 16:46:23;;;;;;;;;;;;;;;;;;5054156;28;20336;-45
2022/05/14 16:48:48;;;;;;;;;;;;;;;;;;5054792;28;20259;-45
2022/05/14 16:51:13;;;;;;;;;;;;;;;;;;5054300;28;19913;-45
2022/05/14 16:53:38;;;;;;;;;;;;;;;;;;5054723;28;20008;-44
2022/05/14 16:56:03;;;;;;;;;;;;;;;;;;5053970;28;20064;-45
2022/05/14 16:58:29;;;;;;;;;;;;;;;;;;5054922;28;20007;-44
2022/05/14 17:00:55;;;;;;;;;;;;;;;;;;5053871;28;19991;-45
2022/05/14 17:03:20;;;;;;;;;;;;;;;;;;5053190;28;19952;-45